Logo AVAMET
Benvolgut visitant, si us plau, ingressa Recuperar contrasenya
AVAMET paisatges

València Micalet

Dades diàries. Acumulats / Últims 30 dies disponibles

Data Temperatura (°C) Humitat rel. (%) Pressió rel. (hPa) Vent (km/h) Precipitació
Mínima Mitjana Màxima Amplitud
tèrmica
Mínima Mitjana Màxima Mínima Mitjana Màxima Predom. Mitjana Ràfega
màxima
Total
(mm)
Índex-n
Mínima Mitjana Màxima Mínima Mitjana Màxima n
0 a 1
P0 max
mm 5'
Dades mensuals acumulades fins l'últim dia disponible
01/2021 1,8 4,7 8,0 8,1 6,9 13,0 21,7 19,9 28 61 87 1.006 1.017 1.030   4,9 41,8 30,6
Dades anuals acumulades fins l'últim dia disponible
2021 1,8 4,7 8,0 8,1 6,9 13,0 21,7 19,9 28 61 87 1.006 1.017 1.030   4,9 41,8 30,6
Últims 30 dies disponibles
17-01-2021 7,4     12,9     21,7 14,3 28 45 55 1.024 1.026 1.029 W 4,2 19,3 0,0
16-01-2021 5,8     10,7     17,0 11,2 32 50 63 1.023 1.027 1.029 W 3,1 19,3 0,0
15-01-2021 6,3     11,4     18,1 11,8 29 52 70 1.023 1.024 1.026 W 5,8 41,8 0,0
14-01-2021 4,6     8,9     15,5 10,9 39 59 69 1.023 1.025 1.028 W 2,4 14,5 0,0
13-01-2021 3,3     7,9     16,3 13,0 33 57 69 1.027 1.028 1.030 W 2,9 12,9 0,0
12-01-2021 1,8     5,9     12,3 10,5 37 57 72 1.026 1.027 1.029 W 4,0 16,1 0,0
11-01-2021 4,0     6,5     10,7 6,7 57 67 78 1.018 1.021 1.026 WNW 2,7 17,7 0,0
10-01-2021 3,2     6,1     9,8 6,6 69 76 83 1.009 1.013 1.018 WNW 2,3 17,7 0,0
09-01-2021 4,2     5,5     7,3 3,1 79 84 87 1.006 1.008 1.009 WNW 6,6 41,8 5,2 0,20
08-01-2021 4,4     5,6     6,9 2,5 70 82 87 1.009 1.013 1.015 NNE 6,8 35,4 18,0 0,27 0,60
07-01-2021 5,3     6,9     9,4 4,1 56 76 85 1.012 1.014 1.016 NNE 4,3 29,0 6,4
06-01-2021 2,8     6,5     11,1 8,3 44 62 71 1.013 1.015 1.017 WNW 2,6 14,5 0,0
05-01-2021 3,6     7,1     12,4 8,8 39 60 73 1.011 1.013 1.014 W 4,3 20,9 0,0
04-01-2021 6,0     8,4     12,3 6,3 44 57 66 1.009 1.012 1.014 W 9,7 30,6 0,0
03-01-2021 4,3     8,8     14,5 10,2 33 45 53 1.012 1.013 1.015 W 6,1 29,0 0,0
02-01-2021 4,5     7,8     11,2 6,7 40 50 64 1.009 1.010 1.012 WNW 8,7 35,4 0,0
01-01-2021 8,0     10,5     13,9 5,9 36 58 77 1.006 1.008 1.010 W 6,6 37,0 1,0 0,42 0,40
31-12-2020 6,1     10,2     14,8 8,7 42 54 64 1.011 1.015 1.018 OSO 6,5 33,8 0,0
30-12-2020 6,5     10,2     15,2 8,7 35 51 61 1.010 1.015 1.018 W 6,6 27,4 0,0
29-12-2020 8,7     10,7     14,0 5,3 45 56 64 1.004 1.006 1.010 W 13,5 49,9 0,0
28-12-2020 10,6     13,0     16,2 5,6 32 49 70 997 1.001 1.005 W 13,2 67,6 0,0
27-12-2020 4,4     10,0     16,3 11,9 32 47 61 1.003 1.013 1.023 W 10,3 59,5 0,0
26-12-2020 5,8     9,9     15,1 9,3 29 42 55 1.023 1.026 1.028 W 5,3 32,2 0,0
25-12-2020 8,1     11,4     14,4 6,3 20 50 85 1.022 1.025 1.028 NW 8,4 48,3 0,6
24-12-2020 12,1     14,4     17,1 5,0 60 70 79 1.022 1.023 1.025 ENE 1,6 14,5 0,0
23-12-2020 9,8     14,1     22,7 12,9 51 76 85 1.022 1.024 1.027 SW 1,9 19,3 0,0
22-12-2020 10,1     13,3     18,1 8,0 61 77 86 1.026 1.028 1.030 W 2,6 16,1 0,0
21-12-2020 9,0     12,9     18,9 9,9 49 71 79 1.027 1.029 1.030 W 2,7 16,1 0,0
20-12-2020 10,9     14,3     19,5 8,6 48 69 80 1.021 1.024 1.029 W 2,3 17,7 0,0
19-12-2020 8,7     13,4     19,1 10,4 50 69 81 1.019 1.021 1.023 W 4,0 25,7 0,0
Últims 13 mesos disponibles
12/2020 4,4 9,5 16,0 13,0 13,6 17,4 22,7 18,3 42 61 79 998 1.015 1.029 W 6,9 67,6 4,0
11/2020 8,7 12,9 17,8 16,0 16,7 20,0 24,5 15,8 66 77 91 1.007 1.023 1.030 WNW 4,0 57,9 261,0
10/2020 11,3 15,5 20,5 19,4 20,6 23,9 32,2 20,9 44 60 80 998 1.017 1.026 W 5,6 64,4 6,2
09/2020 14,8 20,3 23,3 24,0 23,7 27,9 31,7 16,9 39 64 77 1.012 1.018 1.024 W 4,9 41,8 14,2
08/2020 18,6 24,1 26,0 27,2 25,8 30,3 33,1 14,5 49 69 77 1.004 1.014 1.019 ENE 5,1 38,6 5,2
07/2020 20,4 23,7 26,1 26,6 26,8 29,5 33,0 12,6 52 72 77 1.012 1.016 1.021 ENE 5,2 35,4 8,6
06/2020 16,2 20,1 23,1 23,4 20,7 27,0 32,2 16,0 38 68 78 1.005 1.015 1.021 ENE 5,8 48,3 34,2
05/2020 13,9 17,9 21,0 21,4 20,3 25,1 32,4 18,5 48 67 79 1.006 1.017 1.028 ENE 5,5 48,3 24,6
04/2020 9,9 13,5 18,6 16,4 16,0 20,0 26,6 16,7 45 73 87 1.006 1.017 1.027 ENE 4,2 41,8 47,6
03/2020 6,7 11,6 16,8 14,5 12,3 17,9 24,9 18,2 48 71 88 1.007 1.018 1.028 ENE 7,1 75,6 57,2
02/2020 7,9 11,1 15,1 15,0 14,2 20,2 27,5 19,6 52 70 86 1.014 1.026 1.033 W 3,9 48,3 1,0
01/2020 4,9 8,3 15,1 11,6 9,3 16,0 22,3 17,4 55 73 91 1.017 1.025 1.033 W 5,0 74,0 133,4
12/2019 6,7 11,4 18,3 14,3 13,5 18,2 24,9 18,2 49 68 89 1.002 1.019 1.033 W 6,5 82,1 86,0
Tots els anys disponibles
2020 4,4 15,7 26,1 19,1 9,3 22,9 33,1 28,7 38 69 91 998 1.018 1.033 ENE 5,3 75,6 597,4
2019 3,6 15,5 27,6 18,9 11,9 23,0 41,8 38,2 35 65 91 995 1.017 1.034 W 6,0 82,1 359,4
2018 3,7 15,7 27,4 18,9 9,2 22,7 37,0 33,3 44 70 91 1.000 1.018 1.030 W 5,7 75,6 737,0
2017 2,0 15,5 26,6 18,9 9,6 22,9 36,7 34,7 5,5 69,2 324,0
Temperatura (°C)
Humitat relativa (%)
Velocitat del vent i ràfega màxima (km/h)
Direcció del vent (°)
Pressió (hPa)
Precipitació (mm)
Nota sobre les dades: s'avisa a l'usuari de la provisionalitat i no oficialitat d'aquestes dades
Logo AVAMET blanc
Web allotjada a Sollutia
Llicència de Creative CommonsLa web d'AVAMET i els seus continguts estan subjectes a una llicència de
Reconeixement - No Comercial - Compartir igual
Avís legal - Política de privacitat - Política de cookies
NOVES ESTACIONS: Rossell - carrer Sant Vicent (Soci), Onda - CR Cota 220 (Soci), Artana (Ajuntament/Soci), Sax (Soci), Benicarló - Sant Gregori (Soci), Riba-roja de Túria - la Reva (Soci), Castielfabib - Arroyo Cerezo (Pròpia d'AVAMET), Tavernes de la Valldigna - Ull del Bou/Cambro (Soci), Chella - Casa Conde (Soci), El Genovés (Inforatge) - - -